createdAt,value
2022-09-13T00:00:09.250Z,32.58
2022-09-13T00:02:42.235Z,28.13
2022-09-13T00:05:15.466Z,30.40
2022-09-13T00:07:48.767Z,30.30
2022-09-13T00:10:21.954Z,32.38
2022-09-13T00:13:02.181Z,32.88
2022-09-13T00:15:31.293Z,35.05
2022-09-13T00:18:17.589Z,33.03
2022-09-13T00:20:45.262Z,33.40
2022-09-13T00:23:31.928Z,31.23
2022-09-13T00:26:10.291Z,32.50
2022-09-13T00:28:52.425Z,32.90
2022-09-13T00:31:27.977Z,33.78
2022-09-13T00:34:00.850Z,32.75
2022-09-13T00:36:33.782Z,31.48
2022-09-13T00:39:03.732Z,37.92
2022-09-13T00:41:36.997Z,35.70
2022-09-13T00:44:09.296Z,33.92
2022-09-13T00:46:42.320Z,33.47
2022-09-13T00:49:21.385Z,39.55
2022-09-13T00:52:02.375Z,37.75
2022-09-13T00:54:36.286Z,35.13
2022-09-13T00:57:04.883Z,36.03
2022-09-13T00:59:59.492Z,35.45
2022-09-13T01:02:31.894Z,40.17
2022-09-13T01:05:01.301Z,33.63
2022-09-13T01:07:29.236Z,40.10
2022-09-13T01:09:56.949Z,35.97
2022-09-13T01:12:28.289Z,35.85
2022-09-13T01:15:00.153Z,39.28
2022-09-13T01:17:29.223Z,37.65
2022-09-13T01:19:57.064Z,35.30
2022-09-13T01:22:40.615Z,39.20
2022-09-13T01:25:24.103Z,38.83
2022-09-13T01:28:09.428Z,36.42
2022-09-13T01:30:58.742Z,38.95
2022-09-13T01:33:50.261Z,38.65
2022-09-13T01:36:33.115Z,38.97
2022-09-13T01:39:08.743Z,37.80
2022-09-13T01:41:49.524Z,37.45
2022-09-13T01:44:27.687Z,38.83
2022-09-13T01:47:14.333Z,37.90
2022-09-13T01:49:51.700Z,37.97
2022-09-13T01:52:51.937Z,37.85
2022-09-13T01:56:08.497Z,42.47
2022-09-13T01:59:51.407Z,38.80
2022-09-13T02:02:14.854Z,38.47
2022-09-13T02:11:09.754Z,43.00
2022-09-13T02:14:01.942Z,44.72
2022-09-13T02:17:07.232Z,46.42
2022-09-13T02:19:44.812Z,46.25
2022-09-13T02:22:22.764Z,45.28
2022-09-13T02:24:59.516Z,44.15
2022-09-13T02:27:30.609Z,50.63
2022-09-13T02:30:32.011Z,46.42
2022-09-13T02:33:24.462Z,51.38
2022-09-13T02:42:21.197Z,49.60
2022-09-13T02:45:12.492Z,52.45
2022-09-13T02:47:45.368Z,49.50
2022-09-13T02:50:28.959Z,50.75
2022-09-13T02:53:10.530Z,44.97
2022-09-13T02:55:54.831Z,42.13
2022-09-13T02:58:41.499Z,45.63
2022-09-13T03:02:03.925Z,47.15
2022-09-13T03:10:40.390Z,47.78
2022-09-13T03:13:08.968Z,46.17
2022-09-13T03:15:59.654Z,44.72
2022-09-13T03:18:48.881Z,41.20
2022-09-13T03:24:13.837Z,44.45
2022-09-13T03:26:59.794Z,43.13
2022-09-13T03:29:46.529Z,45.92
2022-09-13T03:32:44.549Z,45.10
2022-09-13T03:35:44.737Z,49.95
2022-09-13T03:38:36.404Z,47.13
2022-09-13T03:41:26.830Z,45.90
2022-09-13T03:44:21.135Z,51.10
2022-09-13T03:47:02.010Z,51.22
2022-09-13T03:49:33.010Z,51.17
2022-09-13T03:52:07.976Z,49.35
2022-09-13T03:55:02.486Z,55.15
2022-09-13T03:57:58.363Z,50.03
2022-09-13T04:00:38.737Z,65.45
2022-09-13T04:05:50.869Z,54.42
2022-09-13T04:08:21.203Z,53.20
2022-09-13T04:11:00.336Z,48.25
2022-09-13T04:13:33.520Z,52.85
2022-09-13T04:16:30.508Z,52.92
2022-09-13T04:19:06.665Z,50.88
2022-09-13T04:21:34.746Z,47.45
2022-09-13T04:24:02.845Z,52.97
2022-09-13T04:26:37.103Z,50.70
2022-09-13T04:29:21.056Z,53.70
2022-09-13T04:32:09.699Z,49.17
2022-09-13T04:34:44.325Z,52.80
2022-09-13T04:37:15.040Z,53.63
2022-09-13T04:39:52.643Z,52.22
2022-09-13T04:42:33.125Z,53.10
2022-09-13T04:45:08.263Z,50.28
2022-09-13T04:50:30.860Z,51.72
2022-09-13T04:53:10.603Z,52.88
2022-09-13T04:55:46.039Z,53.70
2022-09-13T04:58:19.962Z,56.05
2022-09-13T05:00:47.943Z,55.33
2022-09-13T05:03:19.941Z,54.88
2022-09-13T05:06:01.246Z,57.05
2022-09-13T05:08:37.986Z,57.10
2022-09-13T05:11:09.323Z,59.03
2022-09-13T05:13:42.359Z,60.03
2022-09-13T05:16:25.288Z,59.47
2022-09-13T05:18:56.619Z,57.53
2022-09-13T05:21:32.808Z,61.58
2022-09-13T05:24:38.110Z,57.45
2022-09-13T05:27:08.738Z,57.42
2022-09-13T05:29:46.841Z,62.60
2022-09-13T05:32:21.052Z,58.00
2022-09-13T05:35:40.758Z,58.00
2022-09-13T05:37:50.636Z,62.30
2022-09-13T05:40:27.580Z,61.10
2022-09-13T05:43:03.406Z,61.88
2022-09-13T05:45:31.021Z,56.33
2022-09-13T05:48:07.756Z,63.22
2022-09-13T05:50:57.693Z,61.97
2022-09-13T05:53:32.694Z,63.92
2022-09-13T05:56:05.085Z,59.45
2022-09-13T05:58:35.898Z,65.13
2022-09-13T06:01:16.404Z,63.63
2022-09-13T06:03:59.033Z,61.53
2022-09-13T06:06:30.707Z,59.00
2022-09-13T06:09:08.885Z,63.58
2022-09-13T06:11:43.556Z,63.00
2022-09-13T06:14:32.415Z,65.15
2022-09-13T06:17:10.872Z,59.53
2022-09-13T06:19:48.228Z,63.00
2022-09-13T06:22:17.603Z,60.25
2022-09-13T06:24:54.101Z,56.75
2022-09-13T06:27:27.500Z,55.42
2022-09-13T06:29:59.990Z,56.97
2022-09-13T06:32:42.883Z,54.63
2022-09-13T06:35:24.180Z,53.17
2022-09-13T06:37:59.623Z,49.92
2022-09-13T06:40:48.472Z,52.78
2022-09-13T06:43:24.726Z,47.63
2022-09-13T06:46:02.008Z,42.30
2022-09-13T06:48:44.230Z,34.67
2022-09-13T06:51:16.411Z,25.13
2022-09-13T06:53:59.711Z,23.08
2022-09-13T06:56:51.952Z,20.20
2022-09-13T07:07:41.595Z,17.83
2022-09-13T07:10:15.122Z,15.77
2022-09-13T07:13:11.434Z,15.10
2022-09-13T07:15:44.691Z,12.38
2022-09-13T07:18:21.272Z,10.65
2022-09-13T07:23:53.770Z,14.32
2022-09-13T07:26:40.786Z,10.63
2022-09-13T07:29:27.575Z,10.32
2022-09-13T07:32:11.656Z,11.27
2022-09-13T07:37:29.308Z,10.85
2022-09-13T07:39:57.949Z,10.07
2022-09-13T07:42:27.166Z,9.68
2022-09-13T07:45:09.620Z,8.98
2022-09-13T07:47:55.727Z,9.27
2022-09-13T07:50:40.769Z,6.10
2022-09-13T07:53:22.157Z,7.38
2022-09-13T07:58:44.076Z,5.45
2022-09-13T08:01:32.147Z,8.15
2022-09-13T08:04:19.231Z,7.53
2022-09-13T08:06:54.998Z,5.93
2022-09-13T08:10:12.396Z,5.07
2022-09-13T08:13:06.079Z,6.57
2022-09-13T08:15:53.814Z,4.93
2022-09-13T08:18:44.311Z,7.32
2022-09-13T08:24:07.318Z,6.32
2022-09-13T08:26:39.171Z,5.88
2022-09-13T08:29:42.095Z,4.93
2022-09-13T08:32:41.912Z,5.20
2022-09-13T08:35:35.509Z,3.65
2022-09-13T08:38:57.179Z,6.43
2022-09-13T08:53:57.449Z,7.28
2022-09-13T08:56:33.340Z,7.47
2022-09-13T08:59:36.351Z,6.40
2022-09-13T09:02:27.484Z,7.20
2022-09-13T09:05:22.786Z,5.85
2022-09-13T09:08:32.660Z,8.27
2022-09-13T09:11:17.122Z,8.98
2022-09-13T09:15:16.904Z,8.23
2022-09-13T09:20:11.514Z,6.88
2022-09-13T09:22:58.921Z,9.02
2022-09-13T09:25:41.517Z,7.18
2022-09-13T09:28:22.022Z,4.97
2022-09-13T09:31:04.805Z,6.15
2022-09-13T09:33:45.331Z,5.32
2022-09-13T09:49:37.814Z,4.03
2022-09-13T09:52:16.538Z,6.25
2022-09-13T10:06:35.061Z,5.13
2022-09-13T10:09:35.913Z,5.85
2022-09-13T10:12:44.342Z,5.05
2022-09-13T10:18:44.611Z,4.65
2022-09-13T10:21:37.916Z,6.45
2022-09-13T10:24:47.531Z,4.03
2022-09-13T10:28:07.731Z,4.35
2022-09-13T10:31:02.116Z,4.38
2022-09-13T10:47:44.024Z,5.10
2022-09-13T11:04:21.418Z,2.22
2022-09-13T11:07:19.927Z,5.05
2022-09-13T11:10:39.343Z,5.50
2022-09-13T11:13:22.847Z,2.13
2022-09-13T11:15:54.125Z,3.85
2022-09-13T11:18:41.368Z,3.65
2022-09-13T11:21:24.747Z,4.90
2022-09-13T11:24:08.375Z,4.40
2022-09-13T11:26:54.454Z,1.50
2022-09-13T11:29:38.032Z,3.17
2022-09-13T11:32:10.446Z,3.03
2022-09-13T11:35:02.454Z,3.92
2022-09-13T11:37:52.924Z,3.90
2022-09-13T11:40:33.110Z,2.08
2022-09-13T11:43:24.181Z,3.50
2022-09-13T11:46:47.732Z,2.15
2022-09-13T11:49:40.062Z,4.55
2022-09-13T11:52:36.894Z,4.50
2022-09-13T11:55:24.918Z,2.97
2022-09-13T11:58:39.927Z,3.95
2022-09-13T12:01:10.679Z,4.80
2022-09-13T12:03:43.845Z,5.20
2022-09-13T12:09:14.064Z,4.05
2022-09-13T12:11:53.073Z,2.97
2022-09-13T12:14:28.346Z,3.88
2022-09-13T12:17:01.239Z,5.55
2022-09-13T12:19:50.104Z,2.63
2022-09-13T12:22:49.385Z,4.25
2022-09-13T12:25:32.125Z,4.25
2022-09-13T12:28:44.216Z,3.20
2022-09-13T12:31:20.714Z,3.40
2022-09-13T12:34:10.752Z,5.18
2022-09-13T12:37:16.289Z,5.10
2022-09-13T12:40:27.796Z,4.85
2022-09-13T12:43:19.096Z,2.25
2022-09-13T12:46:07.307Z,3.30
2022-09-13T12:49:33.563Z,5.88
2022-09-13T12:52:02.103Z,4.20
2022-09-13T12:54:51.341Z,2.28
2022-09-13T12:57:47.883Z,3.58
2022-09-13T13:00:55.490Z,4.03
2022-09-13T13:03:35.475Z,4.45
2022-09-13T13:06:29.542Z,3.05
2022-09-13T13:09:00.337Z,3.88
2022-09-13T13:11:32.671Z,2.60
2022-09-13T13:20:25.566Z,4.63
2022-09-13T13:23:07.096Z,4.30
2022-09-13T13:26:02.350Z,3.10
2022-09-13T13:28:46.550Z,3.08
2022-09-13T13:31:34.520Z,4.03
2022-09-13T13:37:00.641Z,4.70
2022-09-13T13:42:41.107Z,5.60
2022-09-13T13:45:49.247Z,3.30
2022-09-13T13:48:22.178Z,5.82
2022-09-13T13:51:19.733Z,2.63
2022-09-13T13:54:01.411Z,5.50
2022-09-13T13:56:32.044Z,3.67
2022-09-13T13:59:10.259Z,4.43
2022-09-13T14:01:58.547Z,4.78
2022-09-13T14:05:22.696Z,7.22
2022-09-13T14:10:50.916Z,6.93
2022-09-13T14:13:44.200Z,4.53
2022-09-13T14:16:39.836Z,3.08
2022-09-13T14:20:01.324Z,3.47
2022-09-13T14:22:59.097Z,4.00
2022-09-13T14:25:43.268Z,2.55
2022-09-13T14:28:21.646Z,2.67
2022-09-13T14:36:54.088Z,4.43
2022-09-13T14:39:38.100Z,6.20
2022-09-13T14:42:28.055Z,12.05
2022-09-13T14:48:23.258Z,1.63
2022-09-13T14:51:36.499Z,3.72
2022-09-13T14:54:25.904Z,2.80
2022-09-13T14:57:02.950Z,4.15
2022-09-13T15:00:00.366Z,7.63
2022-09-13T15:02:36.015Z,3.03
2022-09-13T15:05:17.242Z,6.28
2022-09-13T15:08:30.147Z,5.18
2022-09-13T15:14:05.303Z,4.47
2022-09-13T15:17:12.153Z,4.78
2022-09-13T15:22:47.558Z,6.70
2022-09-13T15:25:51.365Z,2.40
2022-09-13T15:31:33.518Z,4.78
2022-09-13T15:37:22.548Z,3.58
2022-09-13T15:40:13.780Z,6.65
2022-09-13T15:42:50.982Z,3.50
2022-09-13T15:45:33.130Z,6.55
2022-09-13T15:48:07.622Z,7.07
2022-09-13T15:51:13.903Z,6.18
2022-09-13T15:55:47.189Z,6.38
2022-09-13T15:58:41.287Z,6.97
2022-09-13T16:01:46.608Z,4.70
2022-09-13T16:04:31.775Z,3.47
2022-09-13T16:07:05.144Z,2.90
2022-09-13T16:10:32.727Z,4.40
2022-09-13T16:12:39.871Z,5.50
2022-09-13T16:18:09.395Z,4.38
2022-09-13T16:20:40.984Z,8.60
2022-09-13T16:24:55.619Z,4.85
2022-09-13T16:27:41.994Z,4.30
2022-09-13T16:39:25.177Z,5.15
2022-09-13T16:41:56.875Z,4.70
2022-09-13T16:44:43.230Z,5.43
2022-09-13T16:47:35.717Z,3.75
2022-09-13T16:50:15.152Z,2.45
2022-09-13T16:59:24.999Z,5.93
2022-09-13T17:02:11.928Z,4.57
2022-09-13T17:04:42.780Z,5.95
2022-09-13T17:07:29.598Z,4.60
2022-09-13T17:11:16.198Z,4.60
2022-09-13T17:13:50.612Z,5.53
2022-09-13T17:16:34.849Z,4.88
2022-09-13T17:19:21.696Z,5.60
2022-09-13T17:21:49.912Z,6.65
2022-09-13T17:24:31.515Z,6.53
2022-09-13T17:27:17.565Z,3.95
2022-09-13T17:29:49.721Z,2.97
2022-09-13T17:32:28.162Z,4.80
2022-09-13T17:35:00.582Z,4.05
2022-09-13T17:37:42.674Z,7.45
2022-09-13T17:40:15.296Z,6.88
2022-09-13T17:42:49.329Z,5.38
2022-09-13T17:45:37.892Z,4.50
2022-09-13T17:48:27.324Z,4.07
2022-09-13T17:51:20.397Z,5.95
2022-09-13T17:54:52.126Z,5.38
2022-09-13T17:57:43.134Z,7.10
2022-09-13T18:00:22.995Z,5.95
2022-09-13T18:03:09.448Z,4.65
2022-09-13T18:05:48.437Z,7.10
2022-09-13T18:08:29.912Z,7.03
2022-09-13T18:11:13.318Z,4.75
2022-09-13T18:13:50.619Z,7.53
2022-09-13T18:16:32.469Z,4.97
2022-09-13T18:19:05.307Z,13.52
2022-09-13T18:21:37.768Z,9.13
2022-09-13T18:24:27.424Z,7.40
2022-09-13T18:27:03.965Z,8.30
2022-09-13T18:29:50.141Z,7.53
2022-09-13T18:35:02.259Z,10.88
2022-09-13T18:37:39.894Z,4.18
2022-09-13T18:40:17.347Z,8.20
2022-09-13T18:42:48.944Z,7.35
2022-09-13T18:45:33.021Z,9.55
2022-09-13T18:48:19.426Z,10.13
2022-09-13T18:51:25.105Z,7.45
2022-09-13T18:53:59.397Z,4.47
2022-09-13T18:56:33.624Z,6.22
2022-09-13T19:01:54.435Z,6.65
2022-09-13T19:04:25.473Z,5.20
2022-09-13T19:06:57.012Z,8.13
2022-09-13T19:09:35.144Z,5.20
2022-09-13T19:12:11.437Z,8.02
2022-09-13T19:14:48.125Z,5.53
2022-09-13T19:17:24.192Z,7.57
2022-09-13T19:20:10.505Z,6.35
2022-09-13T19:22:41.780Z,5.22
2022-09-13T19:25:10.489Z,8.57
2022-09-13T19:27:51.715Z,7.28
2022-09-13T19:30:30.573Z,7.43
2022-09-13T19:33:03.094Z,5.50
2022-09-13T19:35:35.749Z,4.55
2022-09-13T19:38:12.813Z,7.97
2022-09-13T19:40:52.640Z,7.65
2022-09-13T19:43:26.913Z,5.93
2022-09-13T19:46:01.755Z,10.23
2022-09-13T19:48:49.254Z,8.13
2022-09-13T19:54:17.600Z,8.13
2022-09-13T19:56:47.808Z,11.13
2022-09-13T19:59:32.939Z,8.07
2022-09-13T20:02:05.684Z,10.32
2022-09-13T20:04:36.315Z,4.35
2022-09-13T20:07:11.564Z,9.05
2022-09-13T20:09:44.894Z,12.73
2022-09-13T20:12:33.148Z,5.63
2022-09-13T20:15:03.227Z,4.22
2022-09-13T20:20:31.828Z,6.47
2022-09-13T20:23:05.152Z,6.03
2022-09-13T20:28:30.749Z,6.75
2022-09-13T20:31:08.406Z,5.60
2022-09-13T20:36:30.543Z,5.75
2022-09-13T20:39:03.907Z,4.78
2022-09-13T20:41:34.967Z,6.45
2022-09-13T20:44:07.920Z,6.65
2022-09-13T20:46:43.061Z,7.15
2022-09-13T20:49:31.487Z,5.72
2022-09-13T20:52:08.319Z,5.87
2022-09-13T20:54:47.049Z,5.15
2022-09-13T20:57:17.152Z,3.63
2022-09-13T20:59:53.654Z,5.53
2022-09-13T21:02:27.325Z,4.80
2022-09-13T21:05:00.389Z,3.53
2022-09-13T21:07:52.973Z,6.88
2022-09-13T21:10:24.774Z,8.30
2022-09-13T21:12:57.511Z,6.80
2022-09-13T21:15:29.560Z,6.43
2022-09-13T21:18:14.824Z,4.30
2022-09-13T21:20:48.177Z,5.13
2022-09-13T21:23:22.984Z,8.57
2022-09-13T21:25:53.782Z,3.58
2022-09-13T21:28:24.443Z,6.85
2022-09-13T21:31:01.835Z,6.28
2022-09-13T21:33:50.719Z,5.97
2022-09-13T21:36:20.583Z,8.48
2022-09-13T21:38:54.429Z,7.10
2022-09-13T21:41:26.129Z,5.55
2022-09-13T21:46:52.548Z,3.60
2022-09-13T21:49:21.721Z,8.32
2022-09-13T21:51:54.138Z,6.57
2022-09-13T21:54:23.811Z,8.25
2022-09-13T21:57:05.424Z,5.32
2022-09-13T21:59:33.739Z,4.95
2022-09-13T22:02:03.572Z,4.43
2022-09-13T22:04:33.239Z,5.43
2022-09-13T22:07:03.424Z,6.75
2022-09-13T22:09:38.945Z,5.88
2022-09-13T22:12:18.102Z,4.65
2022-09-13T22:17:13.436Z,4.30
2022-09-13T22:19:46.511Z,7.70
2022-09-13T22:22:18.004Z,7.10
2022-09-13T22:24:46.651Z,4.07
2022-09-13T22:27:18.231Z,6.65
2022-09-13T22:29:51.643Z,6.07
2022-09-13T22:32:23.976Z,3.22
2022-09-13T22:34:59.159Z,3.35
2022-09-13T22:37:29.422Z,5.00
2022-09-13T22:40:03.975Z,6.68
2022-09-13T22:42:39.192Z,4.80
2022-09-13T22:45:09.031Z,3.35
2022-09-13T22:47:40.182Z,9.02
2022-09-13T22:50:07.919Z,4.43
2022-09-13T22:52:40.503Z,3.55
2022-09-13T22:55:08.389Z,4.47
2022-09-13T22:57:38.659Z,9.18
2022-09-13T23:00:15.302Z,6.15
2022-09-13T23:02:47.072Z,4.03
2022-09-13T23:05:21.251Z,5.82
2022-09-13T23:08:01.665Z,2.20
2022-09-13T23:10:30.383Z,3.53
2022-09-13T23:13:00.295Z,3.92
2022-09-13T23:15:38.807Z,8.27
2022-09-13T23:18:06.618Z,3.20
2022-09-13T23:20:38.660Z,4.22
2022-09-13T23:23:14.413Z,4.00
2022-09-13T23:26:00.037Z,3.90
2022-09-13T23:28:31.352Z,2.13
2022-09-13T23:31:13.245Z,4.43
2022-09-13T23:33:46.947Z,3.88
2022-09-13T23:36:30.608Z,4.00
2022-09-13T23:39:00.163Z,2.65
2022-09-13T23:41:34.828Z,4.43
2022-09-13T23:44:13.756Z,5.22
2022-09-13T23:46:48.524Z,6.85
2022-09-13T23:49:17.425Z,5.65
2022-09-13T23:51:46.024Z,4.93
2022-09-13T23:54:21.647Z,3.67
2022-09-13T23:56:51.391Z,6.68
2022-09-13T23:59:39.224Z,6.25
